Anzali, Iran

7:45 AM IRDT on April 19, 2015 (GMT +0430)
Rasht | | Change Station
CLOSE
Current Station
Airport
Location: Rasht,
Elevation: -30 ft
Nearby Weather Stations

Elev -30 ft 37.33 °N, 49.61 °E | Updated 15 minutes ago

Mist
Mist
52 °F
Feels Like 52 °F
N
0
Wind Variable Wind from North

Today
High -- | Low -- °F
--% Chance of Precip.
Yesterday
High -- | Low -- °F
Precip. -- in
6:32 AM 7:50 PM
New Moon, 0% visible
Pressure 29.77 in
Visibility 1.2 miles
Clouds
Dew Point 52 °F
Humidity 100%
Rainfall 0.00 in
Snow Depth Not available.
UV Not available.
Pollen Not available.
Air Quality Not available.
Flu Activity Not available.
METAR OIGG 190300Z 00000KT 2000 BR NSC 11/11 Q1008

More Conditions Fewer Conditions

Pressure 29.77 in
Visibility 1.2 miles
Clouds
Dew Point 52 °F
Humidity 100%
Rainfall 0.00 in
Snow Depth Not available.
UV Not available.
Pollen Not available.
Air Quality Not available.
Flu Activity Not available.
METAR OIGG 190300Z 00000KT 2000 BR NSC 11/11 Q1008

More Conditions Fewer Conditions

10-Day Weather Forecast

Almanac

Astronomy

Apr. 19, 2015 Rise Set
Actual Time
Civil Twilight
Nautical Twilight
Astronomical Twilight
Moon
Length of Visible Light
Length of Day
Tomorrow will be .
, % of the Moon is Illuminated

Today's Extremes

Country Highs Country Lows

Community

WunderPhotos

Upload Photos

1,814,669 photos uploaded!

WunderBlogs® & News

Nearby

Air Quality

  Air Quality AQ Index Pollutant
Not available.

Snow Depth

Station Depth Elevation

Earthquake Activity

City Distance Mag. Time & Date
Minimum magnitude displayed is 2.5.

Coastal Water Temperatures

Place Temperature

Stations

Nearby Weather Stations

Station Location Temp. Windchill Dew Point Humidity Wind Precip. Elev Updated Type